createdAt,value
2018-07-10T05:26:26.399Z,24.37
2018-07-10T05:27:28.873Z,24.49
2018-07-10T05:28:31.312Z,24.67
2018-07-10T05:29:33.779Z,24.85
2018-07-10T05:30:36.223Z,25.00
2018-07-10T05:31:39.350Z,25.11
2018-07-10T05:32:42.976Z,25.20
2018-07-10T05:33:45.591Z,25.25
2018-07-10T05:34:48.300Z,25.29
2018-07-10T05:35:50.751Z,25.28
2018-07-10T05:36:53.629Z,25.29
2018-07-10T05:37:56.122Z,25.28
2018-07-10T05:38:59.074Z,25.29
2018-07-10T05:40:01.545Z,25.30
2018-07-10T05:41:04.005Z,25.29
2018-07-10T05:42:07.160Z,25.28
2018-07-10T05:43:10.546Z,25.29
2018-07-10T05:44:13.055Z,25.29
2018-07-10T05:45:16.332Z,25.32
2018-07-10T05:46:18.847Z,25.32
2018-07-10T05:47:22.265Z,25.36
2018-07-10T05:48:24.698Z,25.41
2018-07-10T05:49:27.522Z,25.41
2018-07-10T05:50:29.964Z,25.43
2018-07-10T05:51:32.412Z,25.44
2018-07-10T05:52:35.006Z,25.06
2018-07-10T05:53:37.488Z,25.45
2018-07-10T05:54:39.928Z,25.42
2018-07-10T05:55:42.726Z,25.43
2018-07-10T05:56:45.153Z,25.46
2018-07-10T05:57:47.576Z,25.45
2018-07-10T05:58:51.709Z,25.18
2018-07-10T05:59:54.334Z,25.28
2018-07-10T06:00:56.970Z,25.46
2018-07-10T06:01:59.752Z,25.47
2018-07-10T06:03:02.198Z,25.45
2018-07-10T06:04:04.690Z,25.44
2018-07-10T06:05:07.230Z,25.43
2018-07-10T06:06:09.742Z,25.44
2018-07-10T06:07:12.196Z,24.97
2018-07-10T06:08:15.143Z,25.44
2018-07-10T06:09:17.556Z,25.45
2018-07-10T06:10:20.017Z,25.45
2018-07-10T06:11:22.488Z,25.02
2018-07-10T06:12:24.963Z,25.44
2018-07-10T06:13:28.898Z,25.46
2018-07-10T06:14:32.379Z,25.45
2018-07-10T06:15:34.828Z,25.44
2018-07-10T06:16:37.298Z,25.46
2018-07-10T06:17:39.755Z,25.46
2018-07-10T06:18:42.573Z,25.01
2018-07-10T06:19:45.281Z,25.46
2018-07-10T06:20:48.147Z,25.48
2018-07-10T06:21:50.668Z,25.50
2018-07-10T06:22:53.246Z,25.51
2018-07-10T06:23:55.707Z,25.52
2018-07-10T06:24:58.813Z,25.52
2018-07-10T07:56:53.518Z,24.49
2018-07-10T07:57:58.645Z,24.61
2018-07-10T07:59:02.120Z,23.87
2018-07-10T11:02:33.533Z,24.83
2018-07-10T11:03:37.114Z,24.96
2018-07-10T11:04:45.431Z,25.08
2018-07-10T11:05:48.484Z,24.78
2018-07-10T11:06:50.949Z,24.89
2018-07-10T11:07:54.744Z,25.40
2018-07-10T11:08:58.277Z,25.46
2018-07-10T11:10:01.382Z,25.50
2018-07-10T11:11:04.612Z,25.53
2018-07-10T11:12:07.173Z,25.57
2018-07-10T11:13:09.903Z,25.58
2018-07-10T11:14:15.752Z,25.17
2018-07-10T11:15:18.394Z,25.54
2018-07-10T11:16:20.883Z,25.63
2018-07-10T11:17:23.754Z,25.63
2018-07-10T11:18:26.814Z,25.62
2018-07-10T11:19:32.328Z,25.62
2018-07-10T11:20:35.873Z,25.62
2018-07-10T11:21:38.460Z,25.64
2018-07-10T11:22:41.748Z,25.09
2018-07-10T11:23:44.213Z,25.68
2018-07-10T11:24:46.673Z,25.72
2018-07-10T11:25:49.114Z,25.72
2018-07-10T11:26:51.819Z,25.72
2018-07-10T11:29:03.384Z,25.72
2018-07-10T11:30:07.888Z,25.73
2018-07-10T11:31:10.393Z,25.76
2018-07-10T11:32:14.064Z,25.76
2018-07-10T11:33:16.482Z,25.80
2018-07-10T11:34:18.963Z,25.81
2018-07-10T11:35:21.510Z,25.79
2018-07-10T11:36:24.077Z,25.82
2018-07-10T15:41:41.784Z,24.95
2018-07-10T15:42:44.460Z,25.05
2018-07-10T15:43:46.942Z,25.18
2018-07-10T15:44:49.444Z,25.28
2018-07-10T15:45:52.726Z,25.38
2018-07-10T15:46:57.085Z,25.46
2018-07-10T15:48:00.325Z,25.52
2018-07-10T15:49:02.747Z,25.57
2018-07-10T15:50:06.397Z,25.58
2018-07-10T15:51:09.639Z,25.60
2018-07-10T15:52:14.094Z,25.63
2018-07-10T15:53:18.098Z,25.62
2018-07-10T15:54:20.541Z,25.60
2018-07-10T15:55:24.261Z,25.45
2018-07-10T15:56:27.810Z,25.58
2018-07-10T16:17:42.137Z,25.02
2018-07-10T16:18:45.742Z,25.08
2018-07-10T16:19:48.724Z,25.22
2018-07-10T16:20:51.296Z,25.33
2018-07-10T16:21:53.763Z,25.44
2018-07-10T16:22:56.652Z,25.51
2018-07-10T16:23:59.225Z,25.56
2018-07-10T16:25:02.367Z,25.59
2018-07-10T16:26:04.854Z,25.59
2018-07-10T16:27:08.222Z,25.62
2018-07-10T16:28:11.658Z,25.66
2018-07-10T16:29:14.785Z,25.67
2018-07-10T16:30:17.237Z,25.67
2018-07-10T16:31:20.857Z,25.67
2018-07-10T16:32:23.848Z,25.70
2018-07-10T16:33:26.382Z,25.04
2018-07-10T16:34:28.928Z,25.73
2018-07-10T16:35:32.879Z,25.72
2018-07-10T16:36:35.330Z,25.72
2018-07-10T16:37:37.760Z,25.73
2018-07-10T16:38:40.265Z,25.72
2018-07-10T16:39:43.149Z,25.71
2018-07-10T16:40:45.604Z,25.72
2018-07-10T16:41:48.397Z,25.72
2018-07-10T16:42:50.994Z,25.72
2018-07-10T16:43:53.444Z,25.75
2018-07-10T16:44:55.876Z,25.74
2018-07-10T16:45:58.300Z,25.76
2018-07-10T16:47:01.775Z,25.78
2018-07-10T16:48:04.508Z,25.78
2018-07-10T16:49:07.144Z,25.81
2018-07-10T16:50:09.582Z,25.81
2018-07-10T16:51:12.026Z,25.82
2018-07-10T16:52:14.472Z,25.82
2018-07-10T16:53:17.952Z,25.81
2018-07-10T16:55:31.034Z,25.80
2018-07-10T16:56:34.549Z,25.82
2018-07-10T16:57:36.983Z,25.81
2018-07-10T16:58:39.455Z,25.80
2018-07-10T16:59:41.930Z,25.80
2018-07-10T17:00:44.711Z,25.81
2018-07-10T17:01:47.400Z,25.80
2018-07-10T17:02:49.839Z,25.80
2018-07-10T17:03:52.504Z,25.76
2018-07-10T17:04:55.040Z,25.72
2018-07-10T17:05:57.485Z,25.05
2018-07-10T17:07:01.515Z,25.71
2018-07-10T17:08:05.165Z,25.01
2018-07-10T17:09:08.355Z,25.68
2018-07-10T17:10:12.124Z,25.71
2018-07-10T17:11:14.863Z,25.69
2018-07-10T17:12:17.776Z,25.71
2018-07-10T17:13:21.645Z,25.74
2018-07-10T17:14:24.933Z,25.75
2018-07-10T17:15:28.073Z,25.16
2018-07-10T17:16:30.505Z,25.73
2018-07-10T17:17:32.992Z,25.74
2018-07-10T17:18:35.455Z,25.75
2018-07-10T17:19:40.260Z,25.74
2018-07-10T17:20:44.075Z,25.75
2018-07-10T17:21:47.342Z,25.73
2018-07-10T17:22:49.776Z,25.75
2018-07-10T17:23:53.412Z,25.75
2018-07-10T17:24:55.856Z,25.77
2018-07-10T17:25:58.586Z,25.78
2018-07-10T17:27:03.673Z,25.78
2018-07-10T17:28:09.238Z,25.76
2018-07-10T17:29:11.675Z,25.76
2018-07-10T17:31:22.501Z,25.77
2018-07-10T17:32:24.965Z,25.77
2018-07-10T17:33:28.416Z,25.80
2018-07-10T17:34:30.859Z,25.80
2018-07-10T17:35:33.652Z,25.78
2018-07-10T17:36:36.452Z,25.85
2018-07-10T17:37:39.229Z,25.92
2018-07-10T17:38:41.650Z,25.29
2018-07-10T17:39:44.229Z,25.99
